createdAt,value
2022-10-04T00:02:27.987Z,101549.72
2022-10-04T00:05:12.502Z,101553.66
2022-10-04T00:07:56.051Z,101551.91
2022-10-04T00:10:34.779Z,101542.91
2022-10-04T00:13:25.060Z,101546.03
2022-10-04T00:15:52.968Z,101554.75
2022-10-04T00:18:32.768Z,101553.53
2022-10-04T00:21:06.271Z,101555.78
2022-10-04T00:23:36.057Z,101552.19
2022-10-04T00:26:38.440Z,101565.59
2022-10-04T00:29:44.091Z,101563.03
2022-10-04T00:32:11.114Z,101558.91
2022-10-04T00:34:53.792Z,101561.69
2022-10-04T00:37:25.060Z,101560.84
2022-10-04T00:40:20.192Z,101562.81
2022-10-04T00:43:02.504Z,101555.13
2022-10-04T00:46:02.585Z,101559.34
2022-10-04T00:48:53.237Z,101555.22
2022-10-04T00:51:39.813Z,101557.91
2022-10-04T00:54:35.246Z,101558.19
2022-10-04T00:57:14.392Z,101558.72
2022-10-04T01:00:01.634Z,101555.94
2022-10-04T01:02:53.216Z,101557.06
2022-10-04T01:05:44.384Z,101550.88
2022-10-04T01:08:33.234Z,101546.78
2022-10-04T01:11:19.614Z,101553.66
2022-10-04T01:14:01.996Z,101549.22
2022-10-04T01:16:34.801Z,101545.09
2022-10-04T01:19:26.279Z,101551.91
2022-10-04T01:22:14.163Z,101547.31
2022-10-04T01:24:46.165Z,101555.78
2022-10-04T01:27:45.565Z,101558.84
2022-10-04T01:30:17.561Z,101551.97
2022-10-04T01:32:45.454Z,101547.22
2022-10-04T01:35:16.280Z,101550.00
2022-10-04T01:37:43.985Z,101543.63
2022-10-04T01:40:12.153Z,101548.16
2022-10-04T01:42:55.115Z,101551.03
2022-10-04T01:46:04.892Z,101545.16
2022-10-04T01:48:44.079Z,101546.09
2022-10-04T01:51:27.647Z,101549.53
2022-10-04T01:54:11.589Z,101542.00
2022-10-04T01:57:05.223Z,101545.38
2022-10-04T01:59:51.497Z,101541.28
2022-10-04T02:03:05.029Z,101541.78
2022-10-04T02:05:44.370Z,101541.06
2022-10-04T02:08:25.480Z,101536.97
2022-10-04T02:10:55.017Z,101526.47
2022-10-04T02:13:30.032Z,101528.22
2022-10-04T02:16:00.298Z,101521.94
2022-10-04T02:18:31.810Z,101518.94
2022-10-04T02:21:00.508Z,101529.06
2022-10-04T02:23:29.317Z,101525.78
2022-10-04T02:25:56.447Z,101527.81
2022-10-04T02:28:23.879Z,101524.53
2022-10-04T02:31:12.394Z,101530.19
2022-10-04T02:33:49.603Z,101532.88
2022-10-04T02:36:25.791Z,101531.72
2022-10-04T02:39:06.746Z,101527.59
2022-10-04T02:41:56.446Z,101521.75
2022-10-04T02:44:47.244Z,101533.69
2022-10-04T02:47:26.340Z,101530.59
2022-10-04T02:50:08.823Z,101522.28
2022-10-04T02:52:55.351Z,101523.38
2022-10-04T02:55:31.998Z,101524.53
2022-10-04T02:58:01.208Z,101525.16
2022-10-04T03:00:32.122Z,101527.72
2022-10-04T03:03:37.062Z,101520.00
2022-10-04T03:06:19.300Z,101516.81
2022-10-04T03:09:06.211Z,101518.56
2022-10-04T03:11:40.979Z,101520.00
2022-10-04T03:14:24.335Z,101517.22
2022-10-04T03:16:57.371Z,101517.59
2022-10-04T03:19:29.802Z,101513.25
2022-10-04T03:22:08.045Z,101503.69
2022-10-04T03:24:47.350Z,101514.03
2022-10-04T03:27:29.155Z,101513.41
2022-10-04T03:29:59.572Z,101514.31
2022-10-04T03:32:30.885Z,101518.25
2022-10-04T03:35:17.615Z,101527.16
2022-10-04T03:37:45.465Z,101516.69
2022-10-04T03:40:15.166Z,101520.03
2022-10-04T03:42:47.368Z,101518.63
2022-10-04T03:45:21.407Z,101520.38
2022-10-04T03:47:53.385Z,101521.09
2022-10-04T03:50:33.666Z,101528.38
2022-10-04T03:53:26.642Z,101528.75
2022-10-04T03:55:54.374Z,101519.41
2022-10-04T03:58:26.467Z,101520.25
2022-10-04T04:01:43.234Z,101520.97
2022-10-04T04:05:20.228Z,101519.69
2022-10-04T04:08:13.028Z,101525.72
2022-10-04T04:10:51.371Z,101528.94
2022-10-04T04:13:43.251Z,101530.81
2022-10-04T04:16:12.466Z,101526.50
2022-10-04T04:18:46.316Z,101533.28
2022-10-04T04:21:22.945Z,101532.06
2022-10-04T04:24:13.049Z,101536.50
2022-10-04T04:26:53.180Z,101537.31
2022-10-04T04:29:53.206Z,101532.28
2022-10-04T04:32:42.384Z,101533.91
2022-10-04T04:35:33.997Z,101538.88
2022-10-04T04:38:17.433Z,101525.53
2022-10-04T04:40:46.116Z,101538.50
2022-10-04T04:43:20.234Z,101529.88
2022-10-04T04:46:08.537Z,101536.53
2022-10-04T04:48:38.601Z,101533.75
2022-10-04T04:51:06.242Z,101531.50
2022-10-04T04:53:33.594Z,101533.75
2022-10-04T04:56:10.174Z,101534.41
2022-10-04T04:58:49.933Z,101544.72
2022-10-04T05:01:43.238Z,101545.44
2022-10-04T05:04:12.556Z,101542.47
2022-10-04T05:06:45.070Z,101544.50
2022-10-04T05:09:33.176Z,101541.19
2022-10-04T05:12:24.277Z,101548.78
2022-10-04T05:14:56.981Z,101539.94
2022-10-04T05:17:35.169Z,101546.34
2022-10-04T05:20:05.702Z,101545.19
2022-10-04T05:22:35.125Z,101544.69
2022-10-04T05:25:29.270Z,101546.00
2022-10-04T05:27:57.415Z,101546.47
2022-10-04T05:31:28.764Z,101549.66
2022-10-04T05:33:59.164Z,101553.75
2022-10-04T05:37:24.289Z,101549.25
2022-10-04T05:40:38.545Z,101549.97
2022-10-04T05:43:37.299Z,101544.34
2022-10-04T05:46:35.218Z,101539.25
2022-10-04T05:49:19.378Z,101551.91
2022-10-04T05:52:15.285Z,101553.94
2022-10-04T05:54:42.461Z,101560.00
2022-10-04T05:58:23.040Z,101559.91
2022-10-04T06:01:30.473Z,101564.75
2022-10-04T06:04:44.694Z,101565.56
2022-10-04T06:08:18.175Z,101570.72
2022-10-04T06:11:18.636Z,101567.84
2022-10-04T06:14:33.573Z,101569.69
2022-10-04T06:18:02.455Z,101563.00
2022-10-04T06:21:24.175Z,101570.09
2022-10-04T06:24:10.451Z,101574.50
2022-10-04T06:27:32.787Z,101575.13
2022-10-04T06:30:14.428Z,101576.56
2022-10-04T06:33:24.612Z,101580.50
2022-10-04T06:36:34.316Z,101582.63
2022-10-04T06:40:00.863Z,101580.69
2022-10-04T06:43:11.114Z,101585.03
2022-10-04T06:46:38.053Z,101597.56
2022-10-04T06:49:42.659Z,101599.31
2022-10-04T06:52:42.049Z,101593.06
2022-10-04T06:56:18.469Z,101601.19
2022-10-04T06:59:24.561Z,101599.13
2022-10-04T07:02:03.981Z,101598.41
2022-10-04T07:05:06.876Z,101602.50
2022-10-04T07:07:47.645Z,101604.06
2022-10-04T07:10:47.246Z,101606.53
2022-10-04T07:14:15.530Z,101598.78
2022-10-04T07:16:56.049Z,101600.13
2022-10-04T07:19:53.025Z,101603.50
2022-10-04T07:22:47.757Z,101612.56
2022-10-04T07:25:47.713Z,101608.25
2022-10-04T07:28:47.447Z,101605.31
2022-10-04T07:31:36.889Z,101611.38
2022-10-04T07:34:17.361Z,101611.56
2022-10-04T07:37:12.965Z,101619.22
2022-10-04T07:39:59.871Z,101626.91
2022-10-04T07:42:44.559Z,101623.63
2022-10-04T07:45:33.943Z,101627.22
2022-10-04T07:48:19.902Z,101624.13
2022-10-04T07:51:37.127Z,101626.47
2022-10-04T07:54:40.842Z,101625.75
2022-10-04T07:57:46.223Z,101629.69
2022-10-04T08:00:57.130Z,101644.50
2022-10-04T08:04:28.356Z,101645.53
2022-10-04T08:07:01.275Z,101638.44
2022-10-04T08:10:00.636Z,101640.47
2022-10-04T08:12:57.623Z,101644.72
2022-10-04T08:15:41.998Z,101646.25
2022-10-04T08:19:06.484Z,101654.56
2022-10-04T08:22:04.399Z,101657.09
2022-10-04T08:25:28.347Z,101657.44
2022-10-04T08:28:58.705Z,101660.09
2022-10-04T08:31:52.595Z,101659.66
2022-10-04T08:35:06.034Z,101662.59
2022-10-04T08:38:05.889Z,101658.47
2022-10-04T08:41:56.793Z,101655.72
2022-10-04T08:45:24.859Z,101660.09
2022-10-04T08:49:16.548Z,101660.13
2022-10-04T08:52:07.460Z,101660.59
2022-10-04T08:54:58.184Z,101660.25
2022-10-04T08:58:30.507Z,101660.59
2022-10-04T09:02:01.378Z,101660.31
2022-10-04T09:04:58.817Z,101659.94
2022-10-04T09:08:22.429Z,101655.22
2022-10-04T09:11:21.435Z,101657.00
2022-10-04T09:14:56.279Z,101657.81
2022-10-04T09:18:06.652Z,101663.75
2022-10-04T09:21:04.205Z,101658.50
2022-10-04T09:24:33.661Z,101660.97
2022-10-04T09:27:50.352Z,101663.59
2022-10-04T09:30:21.178Z,101663.09
2022-10-04T09:33:28.227Z,101664.88
2022-10-04T09:36:25.108Z,101665.03
2022-10-04T09:39:40.100Z,101659.78
2022-10-04T09:42:51.278Z,101665.03
2022-10-04T09:45:55.512Z,101659.97
2022-10-04T09:49:09.253Z,101653.53
2022-10-04T09:52:31.754Z,101657.81
2022-10-04T09:55:25.887Z,101659.81
2022-10-04T09:59:01.492Z,101655.38
2022-10-04T10:02:17.870Z,101648.97
2022-10-04T10:05:23.198Z,101661.16
2022-10-04T10:08:08.152Z,101653.91
2022-10-04T10:11:40.102Z,101654.91
2022-10-04T10:15:00.230Z,101645.69
2022-10-04T10:18:15.272Z,101652.59
2022-10-04T10:21:27.874Z,101652.91
2022-10-04T10:24:37.116Z,101652.44
2022-10-04T10:27:54.059Z,101649.44
2022-10-04T10:30:25.988Z,101652.41
2022-10-04T10:33:33.306Z,101649.78
2022-10-04T10:36:30.150Z,101656.19
2022-10-04T10:40:00.308Z,101662.59
2022-10-04T10:42:51.976Z,101649.28
2022-10-04T10:46:06.211Z,101653.56
2022-10-04T10:49:16.942Z,101658.63
2022-10-04T10:52:34.230Z,101654.91
2022-10-04T10:55:56.230Z,101655.47
2022-10-04T10:59:21.053Z,101643.63
2022-10-04T11:02:50.208Z,101638.91
2022-10-04T11:06:05.601Z,101641.97
2022-10-04T11:09:25.224Z,101639.13
2022-10-04T11:13:04.176Z,101639.34
2022-10-04T11:15:55.782Z,101642.13
2022-10-04T11:19:51.443Z,101646.44
2022-10-04T11:23:04.349Z,101644.22
2022-10-04T11:25:57.456Z,101651.72
2022-10-04T11:29:31.685Z,101648.31
2022-10-04T11:32:01.457Z,101651.75
2022-10-04T11:35:27.788Z,101640.22
2022-10-04T11:38:27.464Z,101635.19
2022-10-04T11:41:47.781Z,101626.00
2022-10-04T11:45:01.489Z,101625.41
2022-10-04T11:48:19.613Z,101626.00
2022-10-04T11:51:29.974Z,101623.06
2022-10-04T11:54:28.158Z,101622.09
2022-10-04T11:57:47.438Z,101621.78
2022-10-04T12:00:21.873Z,101617.09
2022-10-04T12:03:42.285Z,101613.97
2022-10-04T12:06:53.406Z,101613.34
2022-10-04T12:10:03.173Z,101607.31
2022-10-04T12:13:16.113Z,101610.13
2022-10-04T12:16:27.672Z,101604.88
2022-10-04T12:20:11.254Z,101600.22
2022-10-04T12:23:11.467Z,101607.41
2022-10-04T12:26:19.307Z,101607.91
2022-10-04T12:30:02.729Z,101602.25
2022-10-04T12:33:16.856Z,101602.78
2022-10-04T12:36:21.695Z,101595.28
2022-10-04T12:39:06.392Z,101592.38
2022-10-04T12:42:32.642Z,101593.00
2022-10-04T12:45:56.415Z,101594.09
2022-10-04T12:49:14.587Z,101599.47
2022-10-04T12:52:10.821Z,101599.72
2022-10-04T12:55:21.564Z,101595.72
2022-10-04T12:58:03.370Z,101589.69
2022-10-04T13:00:45.701Z,101595.50
2022-10-04T13:03:53.679Z,101604.22
2022-10-04T13:07:30.527Z,101591.75
2022-10-04T13:11:04.387Z,101593.06
2022-10-04T13:13:55.595Z,101588.78
2022-10-04T13:17:30.400Z,101577.03
2022-10-04T13:20:39.107Z,101571.66
2022-10-04T13:23:36.102Z,101579.22
2022-10-04T13:26:37.223Z,101573.25
2022-10-04T13:29:24.160Z,101567.78
2022-10-04T13:32:36.696Z,101569.66
2022-10-04T13:35:30.944Z,101556.22
2022-10-04T13:38:49.080Z,101550.38
2022-10-04T13:41:38.550Z,101551.78
2022-10-04T13:44:51.334Z,101555.88
2022-10-04T13:48:09.241Z,101555.16
2022-10-04T13:51:19.753Z,101544.50
2022-10-04T13:54:59.329Z,101541.56
2022-10-04T13:57:50.315Z,101533.69
2022-10-04T14:00:54.224Z,101529.50
2022-10-04T14:04:06.516Z,101527.63
2022-10-04T14:07:14.406Z,101524.88
2022-10-04T14:11:01.634Z,101519.41
2022-10-04T14:14:00.413Z,101519.66
2022-10-04T14:17:32.536Z,101514.25
2022-10-04T14:20:29.398Z,101516.59
2022-10-04T14:23:29.066Z,101510.53
2022-10-04T14:26:44.110Z,101505.88
2022-10-04T14:30:07.666Z,101504.97
2022-10-04T14:33:08.338Z,101506.31
2022-10-04T14:36:10.149Z,101502.03
2022-10-04T14:39:46.121Z,101497.69
2022-10-04T14:43:01.950Z,101492.88
2022-10-04T14:46:22.721Z,101498.16
2022-10-04T14:49:41.376Z,101494.97
2022-10-04T14:52:35.045Z,101492.53
2022-10-04T14:55:38.384Z,101490.84
2022-10-04T14:58:41.032Z,101492.25
2022-10-04T15:01:29.077Z,101493.91
2022-10-04T15:04:49.128Z,101487.59
2022-10-04T15:07:37.552Z,101486.63
2022-10-04T15:10:24.974Z,101485.34
2022-10-04T15:13:25.365Z,101482.56
2022-10-04T15:16:21.641Z,101478.81
2022-10-04T15:19:00.233Z,101472.72
2022-10-04T15:22:04.178Z,101466.19
2022-10-04T15:24:51.893Z,101461.13
2022-10-04T15:27:33.749Z,101460.81
2022-10-04T15:30:21.595Z,101470.00
2022-10-04T15:33:37.213Z,101462.63
2022-10-04T15:36:39.600Z,101463.09
2022-10-04T15:39:45.852Z,101465.09
2022-10-04T15:42:38.285Z,101479.38
2022-10-04T15:46:03.621Z,101482.56
2022-10-04T15:49:36.917Z,101483.63
2022-10-04T15:52:49.112Z,101481.34
2022-10-04T15:55:36.039Z,101489.78
2022-10-04T15:58:54.343Z,101488.06
2022-10-04T16:02:08.687Z,101484.16
2022-10-04T16:05:25.912Z,101475.16
2022-10-04T16:08:10.522Z,101463.72
2022-10-04T16:11:31.413Z,101467.66
2022-10-04T16:14:58.045Z,101469.19
2022-10-04T16:18:16.554Z,101465.44
2022-10-04T16:21:16.048Z,101460.19
2022-10-04T16:23:45.387Z,101470.38
2022-10-04T16:26:34.078Z,101476.78
2022-10-04T16:30:25.950Z,101472.47
2022-10-04T16:33:44.777Z,101452.63
2022-10-04T16:36:28.084Z,101458.03
2022-10-04T16:39:20.937Z,101437.84
2022-10-04T16:42:06.901Z,101443.75
2022-10-04T16:44:53.602Z,101443.75
2022-10-04T16:47:37.325Z,101451.25
2022-10-04T16:50:11.012Z,101457.31
2022-10-04T16:53:29.605Z,101466.28
2022-10-04T16:56:10.647Z,101463.44
2022-10-04T16:59:13.359Z,101475.50
2022-10-04T17:02:29.833Z,101475.97
2022-10-04T17:05:20.183Z,101483.13
2022-10-04T17:08:17.735Z,101484.09
2022-10-04T17:11:43.158Z,101487.28
2022-10-04T17:15:09.270Z,101494.88
2022-10-04T17:18:06.424Z,101500.56
2022-10-04T17:20:42.338Z,101501.84
2022-10-04T17:23:53.617Z,101500.50
2022-10-04T17:26:47.260Z,101494.88
2022-10-04T17:29:51.499Z,101498.75
2022-10-04T17:33:12.522Z,101506.00
2022-10-04T17:36:38.174Z,101499.03
2022-10-04T17:39:46.287Z,101500.91
2022-10-04T17:42:35.855Z,101495.34
2022-10-04T17:46:05.338Z,101495.34
2022-10-04T17:49:13.443Z,101501.84
2022-10-04T17:52:07.877Z,101501.94
2022-10-04T17:55:10.661Z,101482.81
2022-10-04T17:57:59.989Z,101469.63
2022-10-04T18:01:07.725Z,101478.06
2022-10-04T18:03:54.825Z,101484.88
2022-10-04T18:06:46.670Z,101486.63
2022-10-04T18:09:46.941Z,101475.66
2022-10-04T18:12:32.289Z,101469.66
2022-10-04T18:15:35.845Z,101467.84
2022-10-04T18:18:27.492Z,101464.25
2022-10-04T18:20:54.308Z,101475.78
2022-10-04T18:23:29.274Z,101483.38
2022-10-04T18:26:28.244Z,101485.53
2022-10-04T18:28:55.505Z,101491.19
2022-10-04T18:31:40.375Z,101484.91
2022-10-04T18:34:16.627Z,101488.13
2022-10-04T18:37:40.815Z,101476.09
2022-10-04T18:40:35.452Z,101481.00
2022-10-04T18:43:02.606Z,101471.63
2022-10-04T18:45:34.667Z,101463.91
2022-10-04T18:48:18.362Z,101460.41
2022-10-04T18:50:47.273Z,101456.91
2022-10-04T18:54:01.546Z,101458.66
2022-10-04T18:56:43.383Z,101464.50
2022-10-04T19:00:29.524Z,101459.78
2022-10-04T19:03:48.776Z,101471.19
2022-10-04T19:06:33.778Z,101482.59
2022-10-04T19:09:20.407Z,101474.56
2022-10-04T19:12:09.126Z,101484.63
2022-10-04T19:14:59.963Z,101474.78
2022-10-04T19:17:55.459Z,101475.13
2022-10-04T19:21:05.832Z,101465.09
2022-10-04T19:23:59.116Z,101462.31
2022-10-04T19:26:40.743Z,101464.03
2022-10-04T19:29:35.679Z,101471.31
2022-10-04T19:32:42.979Z,101479.75
2022-10-04T19:35:35.231Z,101467.63
2022-10-04T19:39:12.371Z,101472.13
2022-10-04T19:42:11.551Z,101475.00
2022-10-04T19:45:25.931Z,101477.13
2022-10-04T19:47:58.464Z,101478.91
2022-10-04T19:50:45.197Z,101482.00
2022-10-04T19:53:39.636Z,101479.81
2022-10-04T19:56:23.839Z,101482.88
2022-10-04T19:59:40.154Z,101489.03
2022-10-04T20:02:16.618Z,101490.53
2022-10-04T20:04:48.722Z,101498.84
2022-10-04T20:07:27.568Z,101493.28
2022-10-04T20:10:08.561Z,101494.13
2022-10-04T20:12:41.554Z,101489.19
2022-10-04T20:15:17.651Z,101477.88
2022-10-04T20:17:49.000Z,101480.09
2022-10-04T20:20:43.080Z,101489.56
2022-10-04T20:23:12.005Z,101491.00
2022-10-04T20:25:50.704Z,101489.31
2022-10-04T20:28:26.364Z,101479.16
2022-10-04T20:31:01.429Z,101483.63
2022-10-04T20:33:34.218Z,101487.53
2022-10-04T20:36:20.560Z,101475.69
2022-10-04T20:39:03.056Z,101470.28
2022-10-04T20:41:49.897Z,101465.38
2022-10-04T20:44:53.835Z,101460.69
2022-10-04T20:47:46.247Z,101467.13
2022-10-04T20:50:42.191Z,101466.31
2022-10-04T20:53:30.804Z,101473.56
2022-10-04T20:56:28.893Z,101476.34
2022-10-04T20:59:04.385Z,101478.03
2022-10-04T21:01:42.795Z,101471.97
2022-10-04T21:04:32.395Z,101461.22
2022-10-04T21:07:07.075Z,101470.09
2022-10-04T21:09:37.864Z,101466.75
2022-10-04T21:12:27.926Z,101470.91
2022-10-04T21:15:17.428Z,101466.81
2022-10-04T21:18:03.963Z,101457.97
2022-10-04T21:20:51.634Z,101470.47
2022-10-04T21:23:33.648Z,101471.88
2022-10-04T21:26:28.042Z,101475.19
2022-10-04T21:28:58.464Z,101479.09
2022-10-04T21:31:26.171Z,101474.91
2022-10-04T21:33:53.216Z,101447.22
2022-10-04T21:36:20.138Z,101451.38
2022-10-04T21:38:47.095Z,101442.78
2022-10-04T21:41:14.035Z,101435.00
2022-10-04T21:43:41.167Z,101422.38
2022-10-04T21:46:08.198Z,101425.59
2022-10-04T21:48:35.185Z,101426.59
2022-10-04T21:51:02.114Z,101425.47
2022-10-04T21:53:29.072Z,101428.00
2022-10-04T21:55:56.180Z,101421.34
2022-10-04T21:58:23.111Z,101420.28
2022-10-04T22:00:50.208Z,101413.69
2022-10-04T22:03:17.313Z,101413.47
2022-10-04T22:05:44.356Z,101415.19
2022-10-04T22:08:11.402Z,101427.38
2022-10-04T22:10:40.065Z,101418.84
2022-10-04T22:13:07.266Z,101425.81
2022-10-04T22:15:34.296Z,101426.41
2022-10-04T22:18:01.246Z,101412.25
2022-10-04T22:20:28.457Z,101406.97
2022-10-04T22:22:55.949Z,101406.13
2022-10-04T22:25:27.784Z,101413.19
2022-10-04T22:27:55.111Z,101410.69
2022-10-04T22:30:34.382Z,101411.53
2022-10-04T22:33:02.160Z,101398.50
2022-10-04T22:35:31.868Z,101394.59
2022-10-04T22:38:00.356Z,101385.78
2022-10-04T22:40:29.610Z,101386.63
2022-10-04T22:43:00.867Z,101392.50
2022-10-04T22:45:33.622Z,101388.91
2022-10-04T22:48:15.200Z,101383.72
2022-10-04T22:50:42.804Z,101378.75
2022-10-04T22:53:21.145Z,101378.22
2022-10-04T22:55:52.506Z,101372.97
2022-10-04T22:58:21.155Z,101368.56
2022-10-04T23:00:49.902Z,101366.63
2022-10-04T23:03:32.620Z,101364.66
2022-10-04T23:06:03.007Z,101365.00
2022-10-04T23:08:30.961Z,101372.44
2022-10-04T23:11:00.744Z,101374.69
2022-10-04T23:13:28.241Z,101374.13
2022-10-04T23:16:06.792Z,101377.78
2022-10-04T23:18:33.717Z,101369.34
2022-10-04T23:21:02.581Z,101366.84
2022-10-04T23:23:31.649Z,101370.75
2022-10-04T23:25:58.565Z,101375.53
2022-10-04T23:28:25.807Z,101371.69
2022-10-04T23:31:19.373Z,101375.34
2022-10-04T23:33:46.346Z,101358.75
2022-10-04T23:36:15.783Z,101356.59
2022-10-04T23:38:59.050Z,101361.28
2022-10-04T23:41:26.928Z,101356.06
2022-10-04T23:43:54.185Z,101348.31
2022-10-04T23:46:24.728Z,101333.63
2022-10-04T23:48:51.798Z,101341.91
2022-10-04T23:51:20.436Z,101356.13
2022-10-04T23:53:50.306Z,101360.91
2022-10-04T23:56:29.777Z,101357.09
2022-10-04T23:58:59.566Z,101355.72
